createdAt,value
2022-12-24T00:01:54.231Z,2.17
2022-12-24T00:05:55.248Z,2.97
2022-12-24T00:09:56.362Z,2.70
2022-12-24T00:13:57.618Z,3.90
2022-12-24T00:17:58.871Z,3.43
2022-12-24T00:21:59.931Z,2.90
2022-12-24T00:26:01.487Z,2.73
2022-12-24T00:30:03.020Z,2.93
2022-12-24T00:34:04.254Z,2.83
2022-12-24T00:38:06.149Z,2.67
2022-12-24T00:42:07.270Z,4.07
2022-12-24T00:46:08.305Z,3.27
2022-12-24T00:50:09.801Z,3.93
2022-12-24T00:54:12.757Z,3.37
2022-12-24T00:58:13.967Z,2.97
2022-12-24T01:02:15.134Z,3.67
2022-12-24T01:06:20.057Z,3.17
2022-12-24T01:10:21.165Z,5.03
2022-12-24T01:14:22.312Z,3.20
2022-12-24T01:18:24.187Z,3.60
2022-12-24T01:22:25.170Z,3.70
2022-12-24T01:26:26.354Z,3.07
2022-12-24T01:30:27.596Z,2.87
2022-12-24T01:34:28.771Z,3.60
2022-12-24T01:38:29.878Z,3.80
2022-12-24T01:42:49.645Z,4.80
2022-12-24T01:46:54.565Z,4.20
2022-12-24T01:50:59.586Z,3.53
2022-12-24T01:55:13.665Z,3.50
2022-12-24T01:59:17.578Z,3.13
2022-12-24T02:03:19.449Z,2.33
2022-12-24T02:07:21.000Z,3.60
2022-12-24T02:11:22.217Z,3.00
2022-12-24T02:15:23.777Z,2.60
2022-12-24T02:19:37.879Z,3.17
2022-12-24T02:24:02.252Z,3.50
2022-12-24T02:28:23.544Z,4.10
2022-12-24T02:32:28.473Z,3.13
2022-12-24T02:36:39.415Z,4.10
2022-12-24T02:40:44.339Z,3.80
2022-12-24T02:44:55.456Z,4.27
2022-12-24T02:48:58.545Z,3.90
2022-12-24T02:52:59.660Z,3.60
2022-12-24T02:57:13.676Z,4.03
2022-12-24T03:01:52.150Z,3.97
2022-12-24T03:06:00.199Z,3.30
2022-12-24T03:10:23.282Z,3.47
2022-12-24T03:14:26.167Z,4.27
2022-12-24T03:18:29.541Z,3.77
2022-12-24T03:22:33.473Z,4.53
2022-12-24T03:26:35.961Z,4.33
2022-12-24T03:30:40.966Z,4.67
2022-12-24T03:34:42.103Z,4.17
2022-12-24T03:38:43.565Z,4.10
2022-12-24T03:42:44.727Z,4.30
2022-12-24T03:46:45.730Z,4.00
2022-12-24T03:50:46.747Z,3.63
2022-12-24T03:54:47.794Z,3.83
2022-12-24T03:58:49.187Z,4.57
2022-12-24T04:02:50.533Z,4.10
2022-12-24T04:06:51.639Z,3.43
2022-12-24T04:10:52.712Z,2.93
2022-12-24T04:14:53.651Z,4.50
2022-12-24T04:18:54.759Z,4.20
2022-12-24T04:22:55.719Z,3.13
2022-12-24T04:26:56.946Z,3.83
2022-12-24T04:31:07.253Z,4.07
2022-12-24T04:35:09.168Z,3.07
2022-12-24T04:39:10.239Z,3.43
2022-12-24T04:43:11.188Z,3.00
2022-12-24T04:47:12.177Z,2.80
2022-12-24T04:51:14.880Z,3.43
2022-12-24T04:55:17.101Z,3.67
2022-12-24T04:59:18.019Z,3.33
2022-12-24T05:03:19.334Z,4.67
2022-12-24T05:07:20.246Z,3.87
2022-12-24T05:11:21.877Z,2.50
2022-12-24T05:15:22.847Z,3.37
2022-12-24T05:19:24.106Z,3.50
2022-12-24T05:23:44.033Z,2.93
2022-12-24T05:27:51.029Z,3.37
2022-12-24T05:31:49.319Z,4.00
2022-12-24T05:35:51.717Z,3.17
2022-12-24T05:39:58.767Z,4.13
2022-12-24T05:44:00.397Z,4.40
2022-12-24T05:48:01.396Z,3.80
2022-12-24T05:52:02.685Z,5.30
2022-12-24T05:56:09.685Z,4.43
2022-12-24T06:00:11.278Z,4.30
2022-12-24T06:04:12.786Z,4.40
2022-12-24T06:08:13.781Z,3.90
2022-12-24T06:12:14.891Z,4.60
2022-12-24T06:16:19.079Z,4.17
2022-12-24T06:20:20.344Z,4.43
2022-12-24T06:24:21.745Z,3.57
2022-12-24T06:28:23.106Z,3.87
2022-12-24T06:32:24.221Z,3.90
2022-12-24T06:36:26.311Z,4.40
2022-12-24T06:40:27.678Z,4.83
2022-12-24T06:44:28.640Z,4.57
2022-12-24T06:48:29.728Z,4.47
2022-12-24T06:52:30.867Z,5.57
2022-12-24T06:56:31.887Z,4.67
2022-12-24T07:00:33.115Z,5.40
2022-12-24T07:04:34.114Z,4.07
2022-12-24T07:08:35.755Z,4.70
2022-12-24T07:12:36.879Z,8.77
2022-12-24T07:16:38.230Z,7.37
2022-12-24T07:20:39.330Z,5.80
2022-12-24T07:24:40.731Z,7.10
2022-12-24T07:28:41.822Z,7.43
2022-12-24T07:32:43.040Z,7.33
2022-12-24T07:36:44.162Z,7.27
2022-12-24T07:40:45.255Z,6.50
2022-12-24T07:44:46.341Z,6.10
2022-12-24T07:48:47.303Z,5.87
2022-12-24T07:52:48.413Z,6.50
2022-12-24T07:56:49.777Z,5.60
2022-12-24T08:00:58.861Z,5.67
2022-12-24T08:05:00.072Z,5.40
2022-12-24T08:09:01.448Z,5.37
2022-12-24T08:13:03.158Z,6.17
2022-12-24T08:17:04.317Z,5.17
2022-12-24T08:21:09.232Z,5.60
2022-12-24T08:25:10.587Z,5.70
2022-12-24T08:29:11.873Z,4.20
2022-12-24T08:33:12.820Z,5.27
2022-12-24T08:37:13.837Z,5.87
2022-12-24T08:41:14.897Z,5.30
2022-12-24T08:45:16.214Z,4.83
2022-12-24T08:49:17.387Z,4.97
2022-12-24T08:53:18.566Z,7.43
2022-12-24T08:57:20.183Z,5.43
2022-12-24T09:01:21.363Z,7.20
2022-12-24T09:05:22.583Z,4.40
2022-12-24T09:09:23.902Z,4.67
2022-12-24T09:13:25.045Z,3.60
2022-12-24T09:17:26.136Z,3.60
2022-12-24T09:21:27.303Z,3.23
2022-12-24T09:25:28.429Z,3.80
2022-12-24T09:29:30.714Z,3.93
2022-12-24T09:33:34.707Z,3.27
2022-12-24T09:37:37.396Z,3.90
2022-12-24T09:41:57.373Z,3.60
2022-12-24T09:46:20.326Z,3.03
2022-12-24T09:50:36.778Z,4.17
2022-12-24T09:54:49.282Z,3.53
2022-12-24T09:58:50.641Z,4.60
2022-12-24T10:02:52.237Z,3.40
2022-12-24T10:07:06.237Z,3.67
2022-12-24T10:11:20.425Z,3.87
2022-12-24T10:15:31.487Z,3.30
2022-12-24T10:19:45.118Z,5.00
2022-12-24T10:23:50.330Z,4.20
2022-12-24T10:27:54.497Z,3.27
2022-12-24T10:32:02.452Z,4.90
2022-12-24T10:36:11.746Z,3.43
2022-12-24T10:40:29.988Z,3.13
2022-12-24T10:44:32.899Z,3.70
2022-12-24T10:48:53.089Z,4.53
2022-12-24T10:52:57.911Z,3.17
2022-12-24T10:57:01.831Z,5.13
2022-12-24T11:01:03.332Z,3.53
2022-12-24T11:05:08.113Z,4.00
2022-12-24T11:09:18.794Z,4.70
2022-12-24T11:13:37.943Z,3.93
2022-12-24T11:17:35.587Z,3.63
2022-12-24T11:21:39.464Z,4.43
2022-12-24T11:25:43.025Z,3.97
2022-12-24T11:29:44.177Z,3.20
2022-12-24T11:33:48.183Z,3.13
2022-12-24T11:38:02.547Z,3.13
2022-12-24T11:42:03.868Z,3.10
2022-12-24T11:46:08.822Z,3.50
2022-12-24T11:50:22.042Z,3.67
2022-12-24T11:54:29.406Z,3.47
2022-12-24T11:58:37.108Z,3.60
2022-12-24T12:02:40.892Z,3.77
2022-12-24T12:06:46.055Z,3.33
2022-12-24T12:10:50.524Z,3.13
2022-12-24T12:14:55.443Z,3.30
2022-12-24T12:19:02.969Z,4.00
2022-12-24T12:23:26.003Z,3.73
2022-12-24T12:27:39.688Z,4.03
2022-12-24T12:31:44.132Z,3.17
2022-12-24T12:35:47.273Z,3.87
2022-12-24T12:39:48.450Z,3.90
2022-12-24T12:44:11.562Z,3.87
2022-12-24T12:48:53.615Z,3.33
2022-12-24T12:53:12.494Z,3.10
2022-12-24T12:57:17.404Z,3.33
2022-12-24T13:01:43.519Z,3.30
2022-12-24T13:06:04.056Z,3.93
2022-12-24T13:10:27.161Z,3.87
2022-12-24T13:14:38.157Z,4.27
2022-12-24T13:18:46.254Z,4.43
2022-12-24T13:22:50.973Z,4.27
2022-12-24T13:27:05.286Z,3.67
2022-12-24T13:31:24.028Z,4.00
2022-12-24T13:35:37.177Z,4.53
2022-12-24T13:40:07.246Z,3.10
2022-12-24T13:44:15.511Z,3.47
2022-12-24T13:48:20.484Z,4.13
2022-12-24T13:52:25.527Z,3.93
2022-12-24T13:56:29.154Z,5.07
2022-12-24T14:00:34.051Z,4.43
2022-12-24T14:04:37.167Z,5.67
2022-12-24T14:08:44.810Z,4.47
2022-12-24T14:12:49.231Z,3.33
2022-12-24T14:16:51.082Z,3.00
2022-12-24T14:20:54.523Z,3.23
2022-12-24T14:25:18.903Z,2.73
2022-12-24T14:29:25.164Z,3.57
2022-12-24T14:33:34.892Z,3.80
2022-12-24T14:37:36.434Z,3.60
2022-12-24T14:41:59.474Z,3.47
2022-12-24T14:46:28.731Z,3.10
2022-12-24T14:50:55.988Z,3.43
2022-12-24T14:54:56.969Z,3.63
2022-12-24T14:59:00.379Z,3.27
2022-12-24T15:03:01.445Z,4.03
2022-12-24T15:07:04.591Z,3.60
2022-12-24T15:11:09.523Z,4.90
2022-12-24T15:15:16.428Z,3.93
2022-12-24T15:19:33.400Z,5.07
2022-12-24T15:23:36.823Z,6.20
2022-12-24T15:27:38.826Z,5.33
2022-12-24T15:31:40.009Z,6.23
2022-12-24T15:35:51.322Z,6.30
2022-12-24T15:40:08.052Z,6.83
2022-12-24T15:44:12.795Z,6.30
2022-12-24T15:48:26.671Z,6.28
2022-12-24T15:52:27.848Z,5.60
2022-12-24T15:56:43.141Z,7.37
2022-12-24T16:00:46.186Z,10.70
2022-12-24T16:04:47.350Z,13.60
2022-12-24T16:08:51.405Z,14.87
2022-12-24T16:12:53.092Z,13.70
2022-12-24T16:16:56.020Z,8.60
2022-12-24T16:20:57.192Z,12.97
2022-12-24T16:24:59.616Z,12.93
2022-12-24T16:29:01.189Z,19.80
2022-12-24T16:33:02.348Z,16.17
2022-12-24T16:37:03.950Z,16.40
2022-12-24T16:41:06.558Z,15.23
2022-12-24T16:45:09.784Z,12.47
2022-12-24T16:49:17.516Z,14.50
2022-12-24T16:53:21.543Z,10.37
2022-12-24T16:57:23.660Z,10.07
2022-12-24T17:01:25.049Z,8.23
2022-12-24T17:05:26.551Z,6.63
2022-12-24T17:09:27.603Z,7.10
2022-12-24T17:13:28.670Z,7.77
2022-12-24T17:17:29.829Z,7.57
2022-12-24T17:21:31.964Z,8.00
2022-12-24T17:25:35.577Z,7.07
2022-12-24T17:29:36.797Z,7.13
2022-12-24T17:33:38.320Z,10.57
2022-12-24T17:37:39.386Z,11.73
2022-12-24T17:41:41.213Z,11.50
2022-12-24T17:45:42.387Z,12.23
2022-12-24T17:49:43.410Z,12.97
2022-12-24T17:53:45.319Z,10.30
2022-12-24T17:57:47.144Z,11.90
2022-12-24T18:01:48.451Z,10.50
2022-12-24T18:05:50.079Z,12.67
2022-12-24T18:09:51.224Z,11.63
2022-12-24T18:13:54.163Z,9.93
2022-12-24T18:17:55.787Z,9.47
2022-12-24T18:21:57.085Z,8.43
2022-12-24T18:26:05.838Z,8.57
2022-12-24T18:30:08.344Z,6.83
2022-12-24T18:34:12.817Z,6.47
2022-12-24T18:38:14.564Z,6.30
2022-12-24T18:42:16.142Z,6.17
2022-12-24T18:46:20.324Z,5.50
2022-12-24T18:50:21.775Z,7.63
2022-12-24T18:54:22.944Z,7.70
2022-12-24T18:58:24.513Z,6.27
2022-12-24T19:02:25.501Z,7.03
2022-12-24T19:06:27.296Z,8.87
2022-12-24T19:10:28.615Z,10.63
2022-12-24T19:14:29.955Z,13.07
2022-12-24T19:18:31.471Z,14.10
2022-12-24T19:22:32.820Z,30.90
2022-12-24T19:26:33.925Z,18.27
2022-12-24T19:30:41.442Z,7.57
2022-12-24T19:34:42.711Z,5.20
2022-12-24T19:38:44.373Z,7.83
2022-12-24T19:42:47.402Z,10.00
2022-12-24T19:46:48.561Z,8.90
2022-12-24T19:50:49.604Z,4.80
2022-12-24T19:54:50.746Z,4.70
2022-12-24T19:58:52.368Z,4.07
2022-12-24T20:02:54.733Z,4.67
2022-12-24T20:06:59.947Z,5.07
2022-12-24T20:11:00.704Z,3.80
2022-12-24T20:15:01.780Z,4.23
2022-12-24T20:19:06.072Z,3.73
2022-12-24T20:23:08.225Z,4.70
2022-12-24T20:27:09.495Z,4.33
2022-12-24T20:31:16.730Z,3.20
2022-12-24T20:35:17.802Z,3.67
2022-12-24T20:39:18.932Z,3.37
2022-12-24T20:43:24.245Z,4.80
2022-12-24T20:47:23.324Z,5.67
2022-12-24T20:51:26.574Z,6.10
2022-12-24T20:55:27.792Z,3.93
2022-12-24T20:59:28.819Z,4.17
2022-12-24T21:03:30.031Z,4.27
2022-12-24T21:07:31.296Z,3.70
2022-12-24T21:11:52.196Z,4.37
2022-12-24T21:15:53.096Z,4.70
2022-12-24T21:19:54.114Z,5.00
2022-12-24T21:23:55.335Z,6.40
2022-12-24T21:27:56.681Z,4.90
2022-12-24T21:31:57.769Z,6.63
2022-12-24T21:35:59.371Z,6.07
2022-12-24T21:40:00.502Z,7.43
2022-12-24T21:44:01.876Z,6.23
2022-12-24T21:48:05.284Z,6.33
2022-12-24T21:52:06.239Z,6.77
2022-12-24T21:56:11.514Z,7.03
2022-12-24T22:00:22.254Z,6.87
2022-12-24T22:04:25.677Z,8.78
2022-12-24T22:08:44.992Z,8.47
2022-12-24T22:12:46.580Z,8.60
2022-12-24T22:16:47.835Z,8.50
2022-12-24T22:20:49.925Z,9.53
2022-12-24T22:24:50.925Z,9.10
2022-12-24T22:28:51.943Z,8.05
2022-12-24T22:32:53.143Z,8.37
2022-12-24T22:36:55.312Z,8.33
2022-12-24T22:40:56.547Z,9.27
2022-12-24T22:44:58.082Z,7.60
2022-12-24T22:48:59.202Z,6.97
2022-12-24T22:53:00.294Z,7.80
2022-12-24T22:57:01.244Z,7.20
2022-12-24T23:01:02.846Z,12.37
2022-12-24T23:05:04.525Z,13.67
2022-12-24T23:09:08.185Z,13.33
2022-12-24T23:13:30.408Z,16.00
2022-12-24T23:17:31.478Z,15.97
2022-12-24T23:21:33.338Z,18.80
2022-12-24T23:25:34.824Z,20.70
2022-12-24T23:29:35.838Z,19.80
2022-12-24T23:33:37.076Z,20.03
2022-12-24T23:37:38.176Z,19.33
2022-12-24T23:41:39.448Z,21.83
2022-12-24T23:45:46.013Z,21.83
2022-12-24T23:49:47.730Z,23.23
2022-12-24T23:53:50.475Z,23.60
2022-12-24T23:57:51.651Z,20.97
